createdAt,value
2022-11-28T00:00:21.596Z,4.80
2022-11-28T00:02:24.503Z,4.40
2022-11-28T00:04:27.433Z,5.07
2022-11-28T00:06:31.881Z,5.30
2022-11-28T00:08:36.082Z,4.72
2022-11-28T00:10:39.951Z,7.88
2022-11-28T00:12:42.718Z,4.45
2022-11-28T00:14:45.550Z,5.18
2022-11-28T00:16:48.524Z,4.28
2022-11-28T00:18:51.991Z,5.03
2022-11-28T00:21:00.472Z,5.55
2022-11-28T00:23:04.637Z,4.45
2022-11-28T00:25:08.287Z,4.95
2022-11-28T00:27:11.039Z,4.78
2022-11-28T00:29:13.946Z,5.70
2022-11-28T00:31:19.348Z,10.57
2022-11-28T00:33:22.217Z,4.90
2022-11-28T00:35:25.061Z,4.57
2022-11-28T00:37:27.964Z,4.65
2022-11-28T00:39:32.197Z,4.90
2022-11-28T00:41:35.450Z,4.68
2022-11-28T00:43:38.814Z,4.40
2022-11-28T00:45:41.651Z,4.20
2022-11-28T00:47:44.403Z,3.83
2022-11-28T00:49:47.181Z,4.47
2022-11-28T00:51:49.957Z,4.03
2022-11-28T00:53:55.183Z,4.25
2022-11-28T00:55:59.308Z,3.75
2022-11-28T00:58:02.073Z,4.05
2022-11-28T01:00:06.133Z,5.00
2022-11-28T01:02:08.999Z,4.00
2022-11-28T01:04:14.389Z,4.05
2022-11-28T01:06:22.187Z,4.05
2022-11-28T01:08:24.936Z,5.15
2022-11-28T01:10:27.945Z,4.22
2022-11-28T01:12:32.032Z,4.47
2022-11-28T01:14:34.939Z,4.85
2022-11-28T01:16:38.594Z,4.40
2022-11-28T01:18:41.439Z,4.68
2022-11-28T01:20:44.440Z,4.88
2022-11-28T01:22:47.262Z,5.03
2022-11-28T01:24:50.002Z,5.05
2022-11-28T01:26:53.009Z,4.20
2022-11-28T01:28:57.844Z,5.30
2022-11-28T01:31:05.555Z,4.68
2022-11-28T01:33:08.357Z,5.18
2022-11-28T01:35:11.499Z,4.90
2022-11-28T01:37:14.326Z,5.43
2022-11-28T01:39:17.133Z,4.93
2022-11-28T01:41:22.803Z,5.25
2022-11-28T01:43:26.370Z,4.32
2022-11-28T01:45:32.202Z,4.50
2022-11-28T01:47:35.698Z,4.57
2022-11-28T01:49:39.184Z,4.40
2022-11-28T01:51:45.674Z,4.90
2022-11-28T01:53:49.518Z,4.20
2022-11-28T01:55:57.280Z,4.65
2022-11-28T01:58:00.326Z,5.43
2022-11-28T02:00:08.977Z,4.40
2022-11-28T02:02:24.233Z,5.20
2022-11-28T02:04:47.608Z,4.40
2022-11-28T02:06:50.420Z,5.07
2022-11-28T02:08:53.496Z,4.72
2022-11-28T02:11:18.906Z,4.38
2022-11-28T02:13:38.126Z,4.38
2022-11-28T02:15:59.739Z,4.65
2022-11-28T02:18:19.359Z,4.20
2022-11-28T02:20:51.793Z,4.93
2022-11-28T02:23:04.967Z,4.57
2022-11-28T02:25:26.352Z,4.90
2022-11-28T02:28:03.223Z,3.83
2022-11-28T02:30:22.216Z,4.80
2022-11-28T02:32:36.758Z,4.38
2022-11-28T02:34:47.333Z,4.60
2022-11-28T02:36:57.191Z,4.03
2022-11-28T02:39:09.853Z,4.60
2022-11-28T02:41:21.646Z,4.55
2022-11-28T02:43:33.568Z,3.97
2022-11-28T02:45:43.843Z,5.13
2022-11-28T02:47:51.632Z,4.47
2022-11-28T02:49:59.761Z,4.47
2022-11-28T02:52:07.944Z,4.47
2022-11-28T02:54:14.852Z,4.82
2022-11-28T02:56:17.664Z,4.50
2022-11-28T02:58:20.477Z,5.00
2022-11-28T03:00:29.277Z,4.43
2022-11-28T03:02:34.158Z,4.22
2022-11-28T03:06:59.983Z,4.72
2022-11-28T03:09:27.470Z,4.15
2022-11-28T03:11:44.260Z,4.85
2022-11-28T03:13:55.317Z,4.43
2022-11-28T03:16:04.412Z,4.85
2022-11-28T03:18:14.134Z,4.70
2022-11-28T03:20:24.013Z,4.65
2022-11-28T03:22:31.639Z,4.18
2022-11-28T03:24:39.433Z,5.05
2022-11-28T03:26:52.456Z,4.40
2022-11-28T03:29:01.745Z,5.38
2022-11-28T03:31:08.578Z,4.60
2022-11-28T03:33:16.054Z,4.72
2022-11-28T03:35:23.432Z,5.60
2022-11-28T03:37:30.949Z,6.03
2022-11-28T03:39:38.237Z,5.38
2022-11-28T03:41:45.422Z,5.20
2022-11-28T03:43:55.956Z,5.43
2022-11-28T03:46:06.342Z,5.30
2022-11-28T03:48:13.239Z,5.78
2022-11-28T03:50:21.836Z,4.78
2022-11-28T03:52:29.463Z,4.63
2022-11-28T03:54:36.656Z,5.68
2022-11-28T03:56:46.775Z,5.53
2022-11-28T03:58:56.487Z,5.68
2022-11-28T04:01:09.354Z,4.60
2022-11-28T04:03:21.409Z,5.78
2022-11-28T04:05:33.283Z,5.82
2022-11-28T04:07:43.256Z,5.32
2022-11-28T04:09:50.943Z,4.90
2022-11-28T04:12:00.534Z,6.13
2022-11-28T04:14:09.249Z,7.13
2022-11-28T04:16:19.843Z,5.88
2022-11-28T04:18:30.935Z,5.90
2022-11-28T04:20:42.869Z,7.68
2022-11-28T04:22:49.548Z,7.15
2022-11-28T04:24:55.948Z,8.68
2022-11-28T04:27:03.109Z,11.50
2022-11-28T04:29:09.805Z,11.13
2022-11-28T04:31:13.624Z,10.90
2022-11-28T04:33:18.805Z,8.32
2022-11-28T04:35:26.642Z,6.93
2022-11-28T04:37:33.686Z,6.50
2022-11-28T04:39:38.562Z,5.50
2022-11-28T04:43:52.144Z,6.20
2022-11-28T04:45:58.787Z,5.68
2022-11-28T04:48:02.360Z,6.57
2022-11-28T04:50:06.186Z,5.65
2022-11-28T04:52:13.421Z,6.07
2022-11-28T04:54:23.907Z,5.50
2022-11-28T04:56:32.519Z,5.40
2022-11-28T04:58:39.258Z,5.45
2022-11-28T05:00:44.260Z,5.47
2022-11-28T05:02:51.715Z,5.93
2022-11-28T05:04:55.770Z,4.95
2022-11-28T05:07:02.347Z,6.25
2022-11-28T05:09:05.730Z,5.53
2022-11-28T05:11:09.834Z,5.03
2022-11-28T05:13:12.631Z,5.53
2022-11-28T05:15:18.863Z,5.95
2022-11-28T05:17:21.681Z,6.22
2022-11-28T05:19:24.624Z,5.40
2022-11-28T05:21:27.370Z,4.60
2022-11-28T05:23:30.147Z,5.72
2022-11-28T05:25:32.963Z,5.38
2022-11-28T05:27:37.560Z,5.65
2022-11-28T05:29:46.878Z,5.47
2022-11-28T05:31:52.647Z,5.22
2022-11-28T05:33:55.899Z,5.05
2022-11-28T05:36:03.265Z,5.82
2022-11-28T05:38:09.411Z,5.30
2022-11-28T05:40:16.367Z,5.07
2022-11-28T05:42:19.218Z,6.07
2022-11-28T05:44:26.803Z,5.80
2022-11-28T05:46:30.448Z,6.68
2022-11-28T05:48:33.627Z,6.22
2022-11-28T05:50:39.925Z,5.80
2022-11-28T05:52:42.946Z,5.35
2022-11-28T05:54:45.778Z,5.55
2022-11-28T05:56:48.767Z,5.68
2022-11-28T05:58:53.080Z,5.88
2022-11-28T06:00:57.138Z,5.50
2022-11-28T06:03:01.615Z,5.30
2022-11-28T06:05:21.371Z,6.03
2022-11-28T06:07:27.969Z,6.20
2022-11-28T06:09:30.739Z,6.43
2022-11-28T06:11:35.794Z,5.75
2022-11-28T06:15:44.843Z,6.00
2022-11-28T06:17:49.035Z,5.47
2022-11-28T06:19:51.831Z,5.40
2022-11-28T06:21:56.384Z,5.90
2022-11-28T06:24:00.717Z,6.95
2022-11-28T06:26:06.185Z,6.57
2022-11-28T06:28:08.989Z,5.40
2022-11-28T06:30:12.236Z,6.43
2022-11-28T06:32:20.403Z,5.65
2022-11-28T06:34:26.171Z,6.13
2022-11-28T06:36:30.637Z,6.57
2022-11-28T06:38:33.730Z,5.97
2022-11-28T06:40:39.041Z,6.05
2022-11-28T06:42:41.804Z,6.53
2022-11-28T06:44:44.709Z,6.60
2022-11-28T06:46:47.595Z,5.80
2022-11-28T06:48:51.947Z,7.35
2022-11-28T06:51:03.188Z,6.38
2022-11-28T06:53:06.017Z,6.60
2022-11-28T06:55:09.559Z,5.80
2022-11-28T06:57:12.649Z,6.45
2022-11-28T06:59:15.413Z,6.72
2022-11-28T07:01:20.644Z,6.68
2022-11-28T07:03:23.463Z,6.60
2022-11-28T07:05:27.702Z,6.55
2022-11-28T07:07:31.847Z,6.82
2022-11-28T07:09:34.724Z,6.93
2022-11-28T07:11:37.537Z,6.00
2022-11-28T07:13:41.173Z,6.50
2022-11-28T07:15:49.623Z,6.57
2022-11-28T07:17:52.993Z,6.05
2022-11-28T07:19:55.822Z,6.30
2022-11-28T07:21:58.753Z,6.95
2022-11-28T07:24:02.889Z,6.07
2022-11-28T07:26:06.453Z,6.38
2022-11-28T07:28:09.293Z,6.07
2022-11-28T07:30:12.499Z,6.97
2022-11-28T07:32:15.348Z,6.93
2022-11-28T07:34:18.112Z,6.22
2022-11-28T07:36:22.530Z,6.70
2022-11-28T07:38:25.362Z,8.48
2022-11-28T07:40:29.586Z,7.45
2022-11-28T07:42:32.328Z,7.45
2022-11-28T07:44:39.491Z,7.85
2022-11-28T07:46:42.358Z,6.47
2022-11-28T07:48:46.128Z,6.85
2022-11-28T07:50:49.246Z,6.30
2022-11-28T07:52:52.090Z,7.63
2022-11-28T07:54:54.850Z,7.03
2022-11-28T07:57:14.427Z,6.45
2022-11-28T07:59:17.460Z,8.40
2022-11-28T08:01:23.239Z,8.27
2022-11-28T08:03:26.106Z,6.97
2022-11-28T08:05:28.954Z,8.35
2022-11-28T08:07:31.884Z,7.85
2022-11-28T08:09:34.854Z,7.25
2022-11-28T08:11:37.673Z,8.63
2022-11-28T08:13:41.879Z,7.70
2022-11-28T08:15:44.891Z,8.00
2022-11-28T08:17:47.725Z,6.90
2022-11-28T08:19:50.492Z,8.15
2022-11-28T08:21:53.308Z,7.95
2022-11-28T08:24:00.026Z,7.63
2022-11-28T08:26:03.056Z,7.85
2022-11-28T08:28:05.946Z,8.82
2022-11-28T08:30:11.347Z,7.18
2022-11-28T08:32:14.144Z,8.05
2022-11-28T08:34:17.063Z,8.43
2022-11-28T08:36:21.066Z,8.98
2022-11-28T08:38:23.853Z,8.18
2022-11-28T08:40:26.771Z,8.27
2022-11-28T08:42:29.889Z,10.90
2022-11-28T08:44:32.661Z,9.60
2022-11-28T08:46:37.018Z,9.32
2022-11-28T08:48:41.167Z,8.55
2022-11-28T08:50:48.355Z,9.02
2022-11-28T08:52:51.328Z,9.57
2022-11-28T08:54:54.492Z,10.65
2022-11-28T08:56:57.309Z,9.93
2022-11-28T08:59:01.327Z,9.48
2022-11-28T09:01:04.774Z,10.03
2022-11-28T09:03:16.368Z,9.88
2022-11-28T09:05:19.170Z,9.38
2022-11-28T09:07:22.023Z,9.65
2022-11-28T09:09:26.314Z,10.52
2022-11-28T09:11:32.313Z,11.32
2022-11-28T09:13:35.124Z,10.75
2022-11-28T09:15:40.938Z,9.93
2022-11-28T09:17:43.680Z,11.07
2022-11-28T09:19:48.029Z,10.82
2022-11-28T09:21:56.134Z,11.13
2022-11-28T09:24:00.495Z,10.95
2022-11-28T09:26:09.060Z,12.38
2022-11-28T09:28:11.963Z,11.60
2022-11-28T09:30:15.406Z,11.77
2022-11-28T09:32:18.303Z,11.60
2022-11-28T09:34:21.332Z,10.60
2022-11-28T09:36:28.082Z,11.13
2022-11-28T09:38:30.935Z,11.27
2022-11-28T09:40:37.467Z,11.43
2022-11-28T09:42:43.981Z,10.95
2022-11-28T09:44:52.737Z,11.75
2022-11-28T09:46:59.181Z,10.80
2022-11-28T09:49:06.104Z,11.05
2022-11-28T09:51:24.364Z,11.32
2022-11-28T09:53:35.777Z,11.82
2022-11-28T09:55:43.442Z,11.40
2022-11-28T09:57:48.524Z,10.93
2022-11-28T09:59:51.623Z,10.43
2022-11-28T10:02:05.619Z,9.98
2022-11-28T10:04:14.329Z,9.25
2022-11-28T10:06:25.072Z,11.05
2022-11-28T10:08:39.152Z,10.18
2022-11-28T10:10:50.524Z,10.85
2022-11-28T10:13:01.989Z,10.65
2022-11-28T10:15:19.410Z,9.80
2022-11-28T10:17:34.334Z,9.85
2022-11-28T10:19:57.934Z,11.82
2022-11-28T10:22:03.427Z,11.18
2022-11-28T10:24:15.523Z,12.43
2022-11-28T10:26:33.237Z,11.93
2022-11-28T10:28:38.833Z,10.95
2022-11-28T10:30:46.285Z,10.57
2022-11-28T10:32:57.102Z,11.25
2022-11-28T10:35:02.773Z,10.18
2022-11-28T10:37:09.044Z,12.00
2022-11-28T10:39:14.847Z,12.27
2022-11-28T10:41:21.623Z,10.88
2022-11-28T10:43:32.549Z,12.15
2022-11-28T10:45:46.370Z,9.98
2022-11-28T10:48:29.588Z,12.48
2022-11-28T10:50:34.729Z,11.85
2022-11-28T10:52:45.421Z,9.88
2022-11-28T10:55:02.862Z,12.20
2022-11-28T10:57:12.965Z,12.63
2022-11-28T10:59:28.229Z,11.80
2022-11-28T11:01:35.966Z,11.15
2022-11-28T11:03:41.432Z,11.98
2022-11-28T11:05:44.525Z,12.98
2022-11-28T11:07:51.529Z,11.90
2022-11-28T11:09:57.194Z,11.20
2022-11-28T11:12:01.266Z,10.57
2022-11-28T11:14:05.825Z,12.23
2022-11-28T11:16:12.058Z,12.50
2022-11-28T11:18:27.315Z,11.88
2022-11-28T11:20:34.522Z,11.98
2022-11-28T11:22:37.349Z,10.52
2022-11-28T11:24:40.205Z,13.35
2022-11-28T11:26:47.031Z,11.57
2022-11-28T11:28:51.412Z,11.90
2022-11-28T11:31:01.162Z,12.07
2022-11-28T11:33:07.405Z,12.68
2022-11-28T11:35:18.698Z,10.40
2022-11-28T11:37:32.967Z,13.48
2022-11-28T11:39:49.324Z,12.23
2022-11-28T11:42:12.517Z,11.02
2022-11-28T11:44:31.025Z,11.13
2022-11-28T11:46:33.805Z,12.05
2022-11-28T11:48:38.670Z,12.23
2022-11-28T11:53:05.918Z,13.85
2022-11-28T11:55:14.712Z,12.00
2022-11-28T11:57:32.412Z,11.88
2022-11-28T11:59:44.389Z,12.63
2022-11-28T12:01:52.508Z,11.70
2022-11-28T12:04:05.652Z,13.52
2022-11-28T12:06:22.992Z,13.55
2022-11-28T12:08:32.599Z,11.95
2022-11-28T12:10:40.879Z,13.63
2022-11-28T12:12:45.097Z,11.05
2022-11-28T12:14:49.554Z,10.70
2022-11-28T12:17:14.278Z,12.48
2022-11-28T12:19:34.446Z,12.02
2022-11-28T12:21:44.917Z,12.77
2022-11-28T12:24:07.798Z,12.60
2022-11-28T12:26:18.425Z,14.13
2022-11-28T12:28:39.483Z,13.60
2022-11-28T12:30:56.660Z,11.23
2022-11-28T12:33:15.308Z,12.90
2022-11-28T12:35:28.841Z,13.57
2022-11-28T12:38:09.782Z,12.07
2022-11-28T12:40:15.215Z,14.85
2022-11-28T12:42:28.742Z,12.07
2022-11-28T12:44:53.992Z,13.43
2022-11-28T12:47:03.900Z,13.13
2022-11-28T12:49:16.720Z,12.73
2022-11-28T12:51:31.675Z,12.45
2022-11-28T12:53:54.365Z,11.77
2022-11-28T12:56:04.136Z,12.75
2022-11-28T12:58:14.382Z,11.68
2022-11-28T13:00:22.334Z,12.00
2022-11-28T13:02:30.964Z,11.05
2022-11-28T13:04:52.350Z,11.55
2022-11-28T13:07:07.084Z,11.60
2022-11-28T13:09:28.909Z,11.25
2022-11-28T13:11:50.510Z,11.43
2022-11-28T13:14:00.760Z,12.02
2022-11-28T13:16:14.040Z,11.45
2022-11-28T13:18:33.949Z,10.65
2022-11-28T13:20:42.093Z,11.95
2022-11-28T13:22:57.533Z,10.77
2022-11-28T13:25:08.134Z,11.40
2022-11-28T13:27:21.955Z,10.93
2022-11-28T13:29:33.863Z,11.68
2022-11-28T13:31:43.529Z,11.07
2022-11-28T13:33:52.049Z,11.35
2022-11-28T13:35:56.031Z,11.70
2022-11-28T13:40:33.980Z,10.82
2022-11-28T13:45:18.120Z,10.90
2022-11-28T13:47:33.446Z,9.68
2022-11-28T13:51:39.107Z,9.80
2022-11-28T13:53:43.036Z,10.68
2022-11-28T13:55:47.581Z,10.33
2022-11-28T13:57:50.503Z,11.18
2022-11-28T13:59:58.023Z,10.18
2022-11-28T14:02:03.041Z,10.38
2022-11-28T14:04:11.557Z,8.88
2022-11-28T14:06:18.614Z,9.02
2022-11-28T14:08:30.242Z,9.77
2022-11-28T14:10:48.479Z,9.55
2022-11-28T14:13:03.526Z,10.18
2022-11-28T14:15:21.420Z,9.13
2022-11-28T14:17:50.021Z,11.05
2022-11-28T14:20:05.768Z,9.93
2022-11-28T14:22:26.540Z,9.32
2022-11-28T14:24:47.167Z,9.45
2022-11-28T14:27:00.139Z,8.90
2022-11-28T14:29:07.985Z,8.73
2022-11-28T14:31:31.682Z,9.15
2022-11-28T14:33:38.839Z,8.80
2022-11-28T14:36:06.405Z,8.30
2022-11-28T14:38:42.554Z,7.75
2022-11-28T14:41:11.674Z,7.30
2022-11-28T14:43:27.692Z,8.38
2022-11-28T14:45:51.767Z,9.75
2022-11-28T14:48:18.627Z,9.00
2022-11-28T14:50:49.115Z,9.25
2022-11-28T14:53:33.772Z,8.70
2022-11-28T14:55:37.199Z,8.80
2022-11-28T14:57:52.160Z,9.95
2022-11-28T14:59:56.671Z,8.77
2022-11-28T15:02:16.816Z,8.15
2022-11-28T15:04:42.812Z,7.68
2022-11-28T15:06:47.995Z,8.85
2022-11-28T15:09:04.378Z,7.78
2022-11-28T15:11:26.471Z,8.23
2022-11-28T15:13:49.801Z,8.70
2022-11-28T15:15:54.473Z,9.38
2022-11-28T15:18:01.521Z,9.50
2022-11-28T15:20:09.962Z,8.48
2022-11-28T15:22:31.920Z,8.98
2022-11-28T15:24:38.195Z,9.15
2022-11-28T15:26:41.051Z,8.75
2022-11-28T15:28:44.080Z,8.93
2022-11-28T15:30:48.906Z,8.88
2022-11-28T15:32:55.578Z,8.38
2022-11-28T15:35:01.680Z,10.20
2022-11-28T15:37:08.506Z,10.18
2022-11-28T15:39:26.771Z,9.80
2022-11-28T15:41:31.152Z,8.23
2022-11-28T15:43:34.115Z,8.65
2022-11-28T15:45:37.184Z,9.50
2022-11-28T15:47:45.631Z,9.02
2022-11-28T15:49:59.490Z,9.52
2022-11-28T15:52:05.925Z,8.75
2022-11-28T15:54:31.803Z,9.48
2022-11-28T15:56:37.940Z,9.18
2022-11-28T15:58:42.222Z,8.80
2022-11-28T16:00:48.452Z,8.93
2022-11-28T16:02:51.554Z,8.95
2022-11-28T16:05:00.871Z,9.05
2022-11-28T16:07:03.803Z,9.45
2022-11-28T16:09:09.344Z,9.32
2022-11-28T16:11:16.483Z,10.10
2022-11-28T16:13:24.723Z,9.82
2022-11-28T16:15:28.455Z,12.20
2022-11-28T16:17:34.800Z,12.45
2022-11-28T16:19:38.905Z,10.07
2022-11-28T16:21:53.639Z,10.27
2022-11-28T16:23:56.608Z,11.63
2022-11-28T16:26:01.036Z,38.45
2022-11-28T16:28:04.526Z,27.20
2022-11-28T16:32:38.504Z,23.95
2022-11-28T16:34:46.058Z,14.25
2022-11-28T16:36:50.694Z,11.77
2022-11-28T16:38:55.107Z,11.45
2022-11-28T16:41:01.361Z,10.85
2022-11-28T16:43:06.101Z,11.20
2022-11-28T16:45:12.132Z,10.80
2022-11-28T16:47:33.402Z,10.73
2022-11-28T16:49:40.364Z,10.20
2022-11-28T16:51:43.177Z,9.30
2022-11-28T16:53:48.784Z,9.35
2022-11-28T16:55:51.644Z,10.25
2022-11-28T16:57:57.818Z,11.25
2022-11-28T17:00:00.613Z,10.82
2022-11-28T17:02:03.480Z,10.85
2022-11-28T17:04:06.434Z,10.85
2022-11-28T17:06:17.691Z,10.43
2022-11-28T17:08:20.492Z,10.80
2022-11-28T17:10:24.869Z,9.73
2022-11-28T17:12:29.779Z,11.27
2022-11-28T17:14:32.982Z,10.52
2022-11-28T17:16:36.937Z,10.88
2022-11-28T17:18:39.862Z,11.43
2022-11-28T17:20:42.762Z,9.77
2022-11-28T17:22:50.967Z,9.70
2022-11-28T17:24:59.126Z,9.18
2022-11-28T17:27:02.037Z,10.02
2022-11-28T17:29:05.068Z,10.70
2022-11-28T17:31:09.066Z,10.43
2022-11-28T17:33:16.469Z,11.47
2022-11-28T17:35:22.959Z,12.48
2022-11-28T17:37:25.982Z,10.85
2022-11-28T17:39:30.715Z,11.48
2022-11-28T17:41:33.728Z,10.27
2022-11-28T17:43:39.209Z,10.88
2022-11-28T17:45:42.509Z,11.38
2022-11-28T17:47:45.314Z,11.23
2022-11-28T17:49:48.541Z,10.82
2022-11-28T17:51:52.402Z,10.45
2022-11-28T17:53:55.306Z,10.43
2022-11-28T17:56:00.579Z,10.40
2022-11-28T17:58:04.010Z,11.07
2022-11-28T18:00:09.012Z,10.63
2022-11-28T18:02:19.326Z,10.40
2022-11-28T18:04:22.802Z,9.68
2022-11-28T18:06:26.228Z,9.73
2022-11-28T18:08:29.272Z,9.70
2022-11-28T18:10:32.454Z,11.18
2022-11-28T18:12:39.415Z,10.48
2022-11-28T18:14:43.593Z,10.55
2022-11-28T18:16:46.614Z,8.95
2022-11-28T18:18:50.030Z,11.07
2022-11-28T18:20:53.024Z,8.77
2022-11-28T18:22:56.693Z,8.40
2022-11-28T18:24:59.633Z,8.23
2022-11-28T18:27:02.703Z,8.70
2022-11-28T18:29:07.910Z,8.05
2022-11-28T18:31:12.746Z,8.85
2022-11-28T18:33:16.900Z,9.95
2022-11-28T18:35:20.350Z,9.82
2022-11-28T18:37:24.183Z,10.68
2022-11-28T18:39:27.913Z,9.07
2022-11-28T18:41:31.704Z,8.43
2022-11-28T18:43:35.150Z,10.13
2022-11-28T18:45:39.629Z,9.70
2022-11-28T18:47:43.534Z,8.45
2022-11-28T18:49:46.988Z,8.63
2022-11-28T18:51:49.922Z,11.82
2022-11-28T18:53:55.063Z,11.73
2022-11-28T18:56:02.995Z,9.73
2022-11-28T18:58:06.472Z,9.95
2022-11-28T19:00:10.439Z,9.55
2022-11-28T19:02:14.804Z,10.37
2022-11-28T19:04:17.886Z,8.95
2022-11-28T19:06:21.849Z,10.65
2022-11-28T19:08:24.980Z,10.05
2022-11-28T19:10:27.906Z,8.55
2022-11-28T19:12:30.791Z,9.55
2022-11-28T19:14:33.641Z,9.75
2022-11-28T19:16:38.694Z,10.35
2022-11-28T19:18:44.037Z,9.57
2022-11-28T19:20:47.203Z,10.00
2022-11-28T19:22:50.373Z,9.18
2022-11-28T19:24:53.252Z,9.70
2022-11-28T19:26:56.108Z,11.20
2022-11-28T19:28:59.807Z,9.48
2022-11-28T19:31:06.833Z,10.35
2022-11-28T19:33:09.689Z,10.38
2022-11-28T19:35:13.918Z,10.35
2022-11-28T19:37:17.248Z,10.30
2022-11-28T19:39:22.211Z,9.95
2022-11-28T19:41:25.155Z,10.98
2022-11-28T19:43:28.615Z,9.32
2022-11-28T19:45:31.600Z,10.80
2022-11-28T19:47:34.575Z,10.10
2022-11-28T19:49:38.853Z,10.00
2022-11-28T19:51:43.844Z,9.90
2022-11-28T19:53:47.773Z,9.40
2022-11-28T19:55:50.650Z,26.10
2022-11-28T19:57:53.499Z,12.63
2022-11-28T19:59:56.406Z,10.98
2022-11-28T20:01:59.336Z,10.60
2022-11-28T20:04:03.131Z,9.13
2022-11-28T20:06:09.897Z,11.93
2022-11-28T20:08:14.541Z,9.40
2022-11-28T20:10:17.505Z,8.48
2022-11-28T20:12:20.356Z,9.18
2022-11-28T20:14:23.218Z,8.10
2022-11-28T20:16:27.077Z,8.40
2022-11-28T20:18:30.104Z,8.90
2022-11-28T20:20:34.290Z,8.43
2022-11-28T20:22:37.285Z,10.40
2022-11-28T20:24:41.454Z,8.43
2022-11-28T20:26:44.886Z,8.70
2022-11-28T20:28:48.742Z,9.50
2022-11-28T20:30:51.670Z,9.95
2022-11-28T20:32:55.255Z,9.35
2022-11-28T20:35:01.077Z,9.45
2022-11-28T20:37:04.010Z,9.75
2022-11-28T20:39:09.416Z,10.10
2022-11-28T20:43:17.032Z,13.00
2022-11-28T20:45:19.764Z,11.18
2022-11-28T20:47:22.469Z,10.23
2022-11-28T20:49:25.408Z,12.10
2022-11-28T20:51:30.405Z,12.00
2022-11-28T20:53:33.199Z,12.23
2022-11-28T20:55:35.960Z,13.25
2022-11-28T20:57:40.123Z,12.77
2022-11-28T20:59:43.427Z,13.20
2022-11-28T21:01:46.348Z,13.27
2022-11-28T21:03:49.622Z,15.13
2022-11-28T21:05:57.843Z,14.18
2022-11-28T21:08:03.663Z,12.95
2022-11-28T21:10:07.324Z,16.02
2022-11-28T21:12:10.043Z,14.43
2022-11-28T21:14:15.478Z,11.05
2022-11-28T21:16:20.958Z,11.50
2022-11-28T21:18:23.820Z,11.65
2022-11-28T21:20:26.639Z,11.00
2022-11-28T21:22:29.465Z,13.05
2022-11-28T21:24:32.320Z,11.23
2022-11-28T21:26:41.061Z,11.50
2022-11-28T21:28:48.524Z,12.63
2022-11-28T21:30:52.932Z,10.77
2022-11-28T21:32:55.717Z,11.73
2022-11-28T21:35:03.879Z,12.30
2022-11-28T21:37:07.416Z,12.00
2022-11-28T21:39:13.437Z,12.35
2022-11-28T21:41:16.316Z,10.43
2022-11-28T21:43:19.507Z,13.05
2022-11-28T21:45:23.788Z,16.10
2022-11-28T21:47:28.364Z,11.57
2022-11-28T21:49:31.200Z,11.73
2022-11-28T21:51:34.135Z,12.02
2022-11-28T21:53:36.967Z,12.13
2022-11-28T21:55:39.769Z,10.18
2022-11-28T21:57:42.863Z,12.60
2022-11-28T21:59:45.946Z,11.52
2022-11-28T22:01:49.205Z,8.93
2022-11-28T22:03:54.383Z,11.85
2022-11-28T22:06:03.933Z,10.88
2022-11-28T22:08:06.839Z,11.38
2022-11-28T22:10:10.540Z,11.73
2022-11-28T22:12:13.383Z,11.63
2022-11-28T22:14:16.231Z,10.57
2022-11-28T22:16:21.458Z,9.93
2022-11-28T22:18:25.028Z,11.75
2022-11-28T22:20:29.208Z,10.95
2022-11-28T22:22:31.989Z,11.05
2022-11-28T22:24:34.850Z,10.80
2022-11-28T22:26:40.129Z,11.70
2022-11-28T22:28:43.426Z,10.93
2022-11-28T22:30:46.476Z,10.82
2022-11-28T22:32:49.316Z,10.95
2022-11-28T22:34:52.626Z,11.23
2022-11-28T22:36:56.878Z,12.90
2022-11-28T22:39:00.967Z,13.63
2022-11-28T22:41:09.057Z,11.02
2022-11-28T22:43:12.213Z,12.57
2022-11-28T22:45:15.055Z,10.55
2022-11-28T22:47:18.383Z,10.98
2022-11-28T22:49:21.713Z,12.35
2022-11-28T22:51:26.169Z,11.90
2022-11-28T22:53:31.019Z,10.93
2022-11-28T22:55:36.013Z,12.90
2022-11-28T22:57:38.880Z,14.70
2022-11-28T22:59:41.660Z,18.63
2022-11-28T23:01:44.567Z,13.38
2022-11-28T23:03:48.749Z,14.40
2022-11-28T23:05:51.765Z,13.23
2022-11-28T23:07:55.754Z,14.57
2022-11-28T23:09:59.867Z,13.50
2022-11-28T23:12:02.640Z,15.90
2022-11-28T23:14:06.145Z,17.17
2022-11-28T23:16:13.906Z,20.33
2022-11-28T23:18:16.777Z,18.25
2022-11-28T23:20:19.614Z,16.67
2022-11-28T23:22:22.461Z,16.23
2022-11-28T23:24:25.457Z,15.38
2022-11-28T23:26:31.435Z,13.15
2022-11-28T23:28:35.184Z,15.30
2022-11-28T23:30:38.531Z,15.63
2022-11-28T23:32:41.694Z,13.40
2022-11-28T23:34:44.893Z,14.25
2022-11-28T23:36:48.765Z,15.68
2022-11-28T23:38:53.953Z,17.15
2022-11-28T23:40:57.185Z,17.70
2022-11-28T23:43:01.342Z,11.45
2022-11-28T23:45:04.580Z,12.13
2022-11-28T23:47:07.421Z,12.73
2022-11-28T23:49:10.765Z,12.15
2022-11-28T23:51:14.587Z,12.07
2022-11-28T23:53:17.441Z,12.73
2022-11-28T23:55:20.287Z,12.80
2022-11-28T23:57:23.074Z,13.95
2022-11-28T23:59:27.537Z,12.68
